createdAt,value
2023-01-25T00:01:58.338Z,9.73
2023-01-25T00:07:01.168Z,9.17
2023-01-25T00:12:04.013Z,9.73
2023-01-25T00:17:08.077Z,9.67
2023-01-25T00:22:11.221Z,8.33
2023-01-25T00:27:13.920Z,9.27
2023-01-25T00:32:38.017Z,9.20
2023-01-25T00:37:44.500Z,9.60
2023-01-25T00:42:47.308Z,8.63
2023-01-25T00:47:55.464Z,9.40
2023-01-25T00:52:58.258Z,8.93
2023-01-25T00:58:00.990Z,8.97
2023-01-25T01:03:05.113Z,9.33
2023-01-25T01:08:07.920Z,9.20
2023-01-25T01:13:10.715Z,8.97
2023-01-25T01:18:14.922Z,10.70
2023-01-25T01:23:17.774Z,8.93
2023-01-25T01:28:20.589Z,9.53
2023-01-25T01:33:24.850Z,9.87
2023-01-25T01:38:27.728Z,9.77
2023-01-25T01:43:31.546Z,9.53
2023-01-25T01:48:39.368Z,10.17
2023-01-25T01:53:48.029Z,9.17
2023-01-25T01:58:52.040Z,11.03
2023-01-25T02:03:56.582Z,10.03
2023-01-25T02:08:59.942Z,9.80
2023-01-25T02:14:03.137Z,9.83
2023-01-25T02:19:09.127Z,9.80
2023-01-25T02:24:16.335Z,9.20
2023-01-25T02:29:24.007Z,9.20
2023-01-25T02:34:28.139Z,10.07
2023-01-25T02:39:31.260Z,9.30
2023-01-25T02:44:35.969Z,10.07
2023-01-25T02:49:39.814Z,8.67
2023-01-25T02:54:44.207Z,10.43
2023-01-25T02:59:48.525Z,10.10
2023-01-25T03:04:52.211Z,10.30
2023-01-25T03:09:55.187Z,9.70
2023-01-25T03:14:59.314Z,10.07
2023-01-25T03:20:02.605Z,9.53
2023-01-25T03:25:09.402Z,9.87
2023-01-25T03:30:16.807Z,8.33
2023-01-25T03:35:19.888Z,9.37
2023-01-25T03:40:23.707Z,9.90
2023-01-25T03:45:27.818Z,9.60
2023-01-25T03:50:31.312Z,9.93
2023-01-25T03:55:34.613Z,8.97
2023-01-25T04:00:39.092Z,7.43
2023-01-25T04:05:41.992Z,8.83
2023-01-25T04:10:45.695Z,9.60
2023-01-25T04:15:51.421Z,9.20
2023-01-25T04:21:14.180Z,9.17
2023-01-25T04:26:17.328Z,8.77
2023-01-25T04:31:28.089Z,9.33
2023-01-25T04:36:33.039Z,8.87
2023-01-25T04:41:36.194Z,9.03
2023-01-25T04:46:40.549Z,8.67
2023-01-25T04:51:43.447Z,10.50
2023-01-25T04:56:46.324Z,8.33
2023-01-25T05:01:50.511Z,7.97
2023-01-25T05:06:53.305Z,7.30
2023-01-25T05:11:56.646Z,8.70
2023-01-25T05:17:11.652Z,7.83
2023-01-25T05:22:15.846Z,7.97
2023-01-25T05:27:23.452Z,8.87
2023-01-25T05:32:30.425Z,8.23
2023-01-25T05:37:34.208Z,8.70
2023-01-25T05:42:41.671Z,8.27
2023-01-25T05:47:57.417Z,8.50
2023-01-25T05:53:00.338Z,9.60
2023-01-25T05:58:04.604Z,8.07
2023-01-25T06:03:09.650Z,8.17
2023-01-25T06:08:14.791Z,8.23
2023-01-25T06:13:24.689Z,7.73
2023-01-25T06:18:31.532Z,8.40
2023-01-25T06:23:55.456Z,7.70
2023-01-25T06:28:58.415Z,11.30
2023-01-25T06:34:04.536Z,8.10
2023-01-25T06:39:08.078Z,7.87
2023-01-25T06:44:11.032Z,7.57
2023-01-25T06:49:15.321Z,7.63
2023-01-25T06:54:18.105Z,7.77
2023-01-25T06:59:21.034Z,7.30
2023-01-25T07:04:25.144Z,6.73
2023-01-25T07:09:27.971Z,6.73
2023-01-25T07:14:30.879Z,6.70
2023-01-25T07:19:35.237Z,7.93
2023-01-25T07:24:37.952Z,6.60
2023-01-25T07:29:41.332Z,6.93
2023-01-25T07:34:45.817Z,7.57
2023-01-25T07:39:50.562Z,7.47
2023-01-25T07:44:53.296Z,6.63
2023-01-25T07:49:57.649Z,6.97
2023-01-25T07:55:00.487Z,7.33
2023-01-25T08:00:04.084Z,8.00
2023-01-25T08:05:16.507Z,8.00
2023-01-25T08:10:19.429Z,7.57
2023-01-25T08:15:22.735Z,8.23
2023-01-25T08:20:26.928Z,7.23
2023-01-25T08:25:29.639Z,8.97
2023-01-25T08:30:32.454Z,7.37
2023-01-25T08:35:37.230Z,7.50
2023-01-25T08:40:39.968Z,6.70
2023-01-25T08:45:42.682Z,6.13
2023-01-25T08:50:49.884Z,6.33
2023-01-25T08:55:52.568Z,6.33
2023-01-25T09:00:55.371Z,6.27
2023-01-25T09:06:00.125Z,6.70
2023-01-25T09:11:03.438Z,6.80
2023-01-25T09:16:07.877Z,6.00
2023-01-25T09:21:14.378Z,6.67
2023-01-25T09:26:17.703Z,7.00
2023-01-25T09:31:23.663Z,7.03
2023-01-25T09:36:48.852Z,7.70
2023-01-25T09:42:26.221Z,7.07
2023-01-25T09:47:32.105Z,7.40
2023-01-25T09:53:01.293Z,7.77
2023-01-25T09:58:04.461Z,6.93
2023-01-25T10:03:13.535Z,7.83
2023-01-25T10:08:25.873Z,8.13
2023-01-25T10:13:31.772Z,7.63
2023-01-25T10:18:38.927Z,8.70
2023-01-25T10:24:19.298Z,7.80
2023-01-25T10:29:23.416Z,7.77
2023-01-25T10:34:31.240Z,7.40
2023-01-25T10:39:40.291Z,7.40
2023-01-25T10:44:43.003Z,8.60
2023-01-25T10:49:49.290Z,7.83
2023-01-25T10:55:09.210Z,7.77
2023-01-25T11:00:26.043Z,6.90
2023-01-25T11:05:34.572Z,7.47
2023-01-25T11:10:39.705Z,6.37
2023-01-25T11:15:44.608Z,6.17
2023-01-25T11:20:47.480Z,6.90
2023-01-25T11:25:52.343Z,6.27
2023-01-25T11:30:55.140Z,6.03
2023-01-25T11:36:09.411Z,6.20
2023-01-25T11:41:19.180Z,6.33
2023-01-25T11:46:27.194Z,6.33
2023-01-25T11:51:33.582Z,5.77
2023-01-25T11:56:49.383Z,5.67
2023-01-25T12:02:04.767Z,5.73
2023-01-25T12:07:10.479Z,5.30
2023-01-25T12:12:21.395Z,5.40
2023-01-25T12:17:33.447Z,5.10
2023-01-25T12:22:55.830Z,5.67
2023-01-25T12:28:08.869Z,5.80
2023-01-25T12:33:15.400Z,5.03
2023-01-25T12:38:22.945Z,8.87
2023-01-25T12:43:29.611Z,5.87
2023-01-25T12:48:35.356Z,5.53
2023-01-25T12:53:40.334Z,6.17
2023-01-25T12:58:48.194Z,5.53
2023-01-25T13:04:02.951Z,5.63
2023-01-25T13:09:09.930Z,6.23
2023-01-25T13:14:30.212Z,5.23
2023-01-25T13:19:43.243Z,5.63
2023-01-25T13:25:10.690Z,6.40
2023-01-25T13:30:31.753Z,10.90
2023-01-25T13:35:45.333Z,5.50
2023-01-25T13:41:10.683Z,4.80
2023-01-25T13:46:17.467Z,5.63
2023-01-25T13:51:20.626Z,6.17
2023-01-25T13:56:30.228Z,5.20
2023-01-25T14:01:35.438Z,5.60
2023-01-25T14:06:39.663Z,6.20
2023-01-25T14:11:46.520Z,5.47
2023-01-25T14:22:14.974Z,6.43
2023-01-25T14:27:18.080Z,6.43
2023-01-25T14:32:24.006Z,6.37
2023-01-25T14:37:26.741Z,6.80
2023-01-25T14:42:29.634Z,6.70
2023-01-25T14:47:33.988Z,6.57
2023-01-25T14:52:36.836Z,7.07
2023-01-25T14:57:40.902Z,8.47
2023-01-25T15:02:48.368Z,8.63
2023-01-25T15:07:53.003Z,7.23
2023-01-25T15:13:12.793Z,6.83
2023-01-25T15:18:45.870Z,6.67
2023-01-25T15:23:50.083Z,6.60
2023-01-25T15:28:54.041Z,7.97
2023-01-25T15:33:58.928Z,6.23
2023-01-25T15:39:01.723Z,7.63
2023-01-25T15:44:04.475Z,5.87
2023-01-25T15:49:09.568Z,6.37
2023-01-25T15:54:12.403Z,6.77
2023-01-25T15:59:17.579Z,9.97
2023-01-25T16:04:21.946Z,7.33
2023-01-25T16:09:26.748Z,8.30
2023-01-25T16:14:31.627Z,8.37
2023-01-25T16:19:35.904Z,9.70
2023-01-25T16:24:39.664Z,10.10
2023-01-25T16:29:42.429Z,9.33
2023-01-25T16:34:46.531Z,9.23
2023-01-25T16:39:49.577Z,8.90
2023-01-25T16:44:52.499Z,8.90
2023-01-25T16:49:56.679Z,8.93
2023-01-25T16:54:59.799Z,8.33
2023-01-25T17:00:06.910Z,8.90
2023-01-25T17:05:11.984Z,7.93
2023-01-25T17:10:14.659Z,9.37
2023-01-25T17:15:19.843Z,7.77
2023-01-25T17:20:23.932Z,9.87
2023-01-25T17:25:26.729Z,9.30
2023-01-25T17:30:29.497Z,8.93
2023-01-25T17:35:36.167Z,7.63
2023-01-25T17:40:38.976Z,6.97
2023-01-25T17:45:41.810Z,7.50
2023-01-25T17:50:45.894Z,6.20
2023-01-25T17:55:48.639Z,5.90
2023-01-25T18:00:52.502Z,5.53
2023-01-25T18:05:59.582Z,5.47
2023-01-25T18:11:02.248Z,5.10
2023-01-25T18:16:06.349Z,5.33
2023-01-25T18:21:14.258Z,7.13
2023-01-25T18:26:18.457Z,6.50
2023-01-25T18:31:21.300Z,5.43
2023-01-25T18:36:25.877Z,6.37
2023-01-25T18:41:31.090Z,5.87
2023-01-25T18:46:33.951Z,5.67
2023-01-25T18:51:58.828Z,6.23
2023-01-25T18:57:01.085Z,5.70
2023-01-25T19:02:03.895Z,5.47
2023-01-25T19:07:08.192Z,5.90
2023-01-25T19:12:10.934Z,6.33
2023-01-25T19:17:14.223Z,5.97
2023-01-25T19:22:18.471Z,6.47
2023-01-25T19:27:21.942Z,6.13
2023-01-25T19:32:24.658Z,6.50
2023-01-25T19:37:28.826Z,7.13
2023-01-25T19:42:31.671Z,6.03
2023-01-25T19:47:34.465Z,7.00
2023-01-25T19:52:38.521Z,6.03
2023-01-25T19:57:41.284Z,6.97
2023-01-25T20:02:44.054Z,7.37
2023-01-25T20:07:48.287Z,7.03
2023-01-25T20:12:51.184Z,6.33
2023-01-25T20:17:54.038Z,6.60
2023-01-25T20:22:58.124Z,6.47
2023-01-25T20:28:00.905Z,6.63
2023-01-25T20:33:03.628Z,7.67
2023-01-25T20:38:07.736Z,7.20
2023-01-25T20:43:10.582Z,6.40
2023-01-25T20:48:13.325Z,7.17
2023-01-25T20:53:17.516Z,6.83
2023-01-25T20:58:20.294Z,6.63
2023-01-25T21:03:23.204Z,7.57
2023-01-25T21:08:27.683Z,7.73
2023-01-25T21:13:35.625Z,7.93
2023-01-25T21:18:39.658Z,7.87
2023-01-25T21:23:45.898Z,9.30
2023-01-25T21:28:50.189Z,8.33
2023-01-25T21:33:53.246Z,7.23
2023-01-25T21:38:58.120Z,7.10
2023-01-25T21:44:20.201Z,7.13
2023-01-25T21:49:40.462Z,7.67
2023-01-25T21:54:44.661Z,7.33
2023-01-25T21:59:48.746Z,7.50
2023-01-25T22:04:51.665Z,8.20
2023-01-25T22:09:55.750Z,8.83
2023-01-25T22:14:58.523Z,8.90
2023-01-25T22:20:01.432Z,9.03
2023-01-25T22:25:05.921Z,10.40
2023-01-25T22:30:11.745Z,9.50
2023-01-25T22:35:14.756Z,9.07
2023-01-25T22:40:20.650Z,10.20
2023-01-25T22:45:23.384Z,9.67
2023-01-25T22:50:26.204Z,10.60
2023-01-25T22:55:31.911Z,10.97
2023-01-25T23:00:34.785Z,11.90
2023-01-25T23:05:38.269Z,11.07
2023-01-25T23:10:42.358Z,10.37
2023-01-25T23:15:45.140Z,10.53
2023-01-25T23:20:47.851Z,11.10
2023-01-25T23:25:51.907Z,10.53
2023-01-25T23:31:11.344Z,10.63
2023-01-25T23:36:16.012Z,8.87
2023-01-25T23:41:21.404Z,9.10
2023-01-25T23:46:24.923Z,9.87
2023-01-25T23:51:27.670Z,9.90
2023-01-25T23:56:31.773Z,10.00
